Time;durP1;ratioP1;P1;durP2;ratioP2;P2;SDS_P1;SDS_P2;PMS_P1;PMS_P2;Temp;Humidity;BMP_temperature;BMP_pressure;BME280_temperature;BME280_humidity;BME280_pressure;Samples;Min_cycle;Max_cycle;Signal;HPM_P1;HPM_P2
2022/06/11 00:00:39;;;;;;;;;;;22.50;99.90;;;;;;5056376;28;19928;-86
2022/06/11 00:03:06;;;;;;;;;;;22.50;99.90;;;;;;5056244;28;20390;-86
2022/06/11 00:05:32;;;;;;;;;;;22.50;99.90;;;;;;5057862;28;19959;-86
2022/06/11 00:07:59;;;;;;;;;;;22.50;99.90;;;;;;5056660;28;20355;-86
2022/06/11 00:10:26;;;;;;;;;;;22.50;99.90;;;;;;5057629;28;20371;-86
2022/06/11 00:12:52;;;;;;;;;;;22.50;99.90;;;;;;5055306;28;20020;-86
2022/06/11 00:15:21;;;;;;;;;;;22.50;99.90;;;;;;5055137;28;19921;-86
2022/06/11 00:17:47;;;;;;;;;;;22.50;99.90;;;;;;5054925;28;19979;-86
2022/06/11 00:20:14;;;;;;;;;;;22.50;99.90;;;;;;5055341;28;20344;-86
2022/06/11 00:22:41;;;;;;;;;;;22.50;99.90;;;;;;5059994;28;20373;-85
2022/06/11 00:25:08;;;;;;;;;;;22.50;99.90;;;;;;5063025;28;19971;-85
2022/06/11 00:27:35;;;;;;;;;;;22.50;99.90;;;;;;5061460;28;20007;-85
2022/06/11 00:30:02;;;;;;;;;;;22.50;99.90;;;;;;5059850;28;20011;-85
2022/06/11 00:32:30;;;;;;;;;;;22.50;99.90;;;;;;5060332;28;20008;-85
2022/06/11 00:35:02;;;;;;;;;;;22.50;99.90;;;;;;5060415;28;19991;-85
2022/06/11 00:37:29;;;;;;;;;;;22.50;99.90;;;;;;5060223;28;20380;-85
2022/06/11 00:39:56;;;;;;;;;;;22.50;99.90;;;;;;5060732;28;20359;-85
2022/06/11 00:42:25;;;;;;;;;;;22.50;99.90;;;;;;5060030;28;20056;-85
2022/06/11 00:45:07;;;;;;;;;;;22.50;99.90;;;;;;5060198;28;20020;-85
2022/06/11 00:47:35;;;;;;;;;;;22.50;99.90;;;;;;5060026;28;20019;-85
2022/06/11 00:50:04;;;;;;;;;;;22.50;99.90;;;;;;5062752;28;20031;-85
2022/06/11 00:52:32;;;;;;;;;;;22.50;99.90;;;;;;5064466;28;19959;-85
2022/06/11 00:55:01;;;;;;;;;;;22.50;99.90;;;;;;5065697;28;19952;-85
2022/06/11 00:57:30;;;;;;;;;;;22.50;99.90;;;;;;5065543;28;19971;-85
2022/06/11 00:59:59;;;;;;;;;;;22.50;99.90;;;;;;5063650;28;19976;-85
2022/06/11 01:02:26;;;;;;;;;;;22.50;99.90;;;;;;5064885;28;20016;-85
2022/06/11 01:04:55;;;;;;;;;;;22.50;99.90;;;;;;5064487;28;19956;-85
2022/06/11 01:07:29;;;;;;;;;;;22.50;99.90;;;;;;5062759;28;19963;-85
2022/06/11 01:10:07;;;;;;;;;;;22.50;99.90;;;;;;5060502;28;19976;-85
2022/06/11 01:12:38;;;;;;;;;;;22.50;99.90;;;;;;5061518;28;20016;-85
2022/06/11 01:15:08;;;;;;;;;;;22.50;99.90;;;;;;5061225;28;19981;-85
2022/06/11 01:17:40;;;;;;;;;;;22.50;99.90;;;;;;5061226;28;20011;-85
2022/06/11 01:20:16;;;;;;;;;;;22.50;99.90;;;;;;5061935;28;19921;-85
2022/06/11 01:23:01;;;;;;;;;;;22.50;99.90;;;;;;5062002;28;20003;-85
2022/06/11 01:25:32;;;;;;;;;;;22.50;99.90;;;;;;5061128;28;19988;-86
2022/06/11 01:28:14;;;;;;;;;;;22.50;99.90;;;;;;5062658;28;19943;-85
2022/06/11 01:30:43;;;;;;;;;;;22.50;99.90;;;;;;5050667;28;19981;-85
2022/06/11 01:33:12;;;;;;;;;;;22.50;99.90;;;;;;5062281;28;19999;-85
2022/06/11 01:35:46;;;;;;;;;;;22.50;99.90;;;;;;5062632;28;20015;-86
2022/06/11 01:38:18;;;;;;;;;;;22.50;99.90;;;;;;5064521;28;19967;-86
2022/06/11 01:40:48;;;;;;;;;;;22.50;99.90;;;;;;5064777;28;19984;-86
2022/06/11 01:43:17;;;;;;;;;;;22.50;99.90;;;;;;5065099;28;19979;-86
2022/06/11 01:45:46;;;;;;;;;;;22.50;99.90;;;;;;5065520;28;19967;-86
2022/06/11 01:48:14;;;;;;;;;;;22.50;99.90;;;;;;5064827;28;19983;-85
2022/06/11 01:50:43;;;;;;;;;;;22.50;99.90;;;;;;5065689;28;20003;-85
2022/06/11 01:53:17;;;;;;;;;;;22.50;99.90;;;;;;5066297;28;19992;-85
2022/06/11 01:55:59;;;;;;;;;;;22.50;99.90;;;;;;5065977;28;19964;-85
2022/06/11 01:58:34;;;;;;;;;;;22.50;99.90;;;;;;5066367;28;19921;-85
2022/06/11 02:01:06;;;;;;;;;;;22.50;99.90;;;;;;5065504;28;20046;-85
2022/06/11 02:03:36;;;;;;;;;;;22.50;99.90;;;;;;5065315;28;19921;-85
2022/06/11 02:06:27;;;;;;;;;;;22.50;99.90;;;;;;5061937;28;20427;-86
2022/06/11 02:08:57;;;;;;;;;;;22.50;99.90;;;;;;5049317;28;19984;-85
2022/06/11 02:11:26;;;;;;;;;;;22.50;99.90;;;;;;5063841;28;20012;-85
2022/06/11 02:13:55;;;;;;;;;;;22.50;99.90;;;;;;5063723;28;19925;-85
2022/06/11 02:16:26;;;;;;;;;;;22.50;99.90;;;;;;5060152;28;19976;-86
2022/06/11 02:18:54;;;;;;;;;;;22.50;99.90;;;;;;5061489;28;20019;-86
2022/06/11 02:21:23;;;;;;;;;;;22.50;99.90;;;;;;5062806;28;20011;-85
2022/06/11 02:23:51;;;;;;;;;;;22.50;99.90;;;;;;5062220;28;20003;-85
2022/06/11 02:26:20;;;;;;;;;;;22.50;99.90;;;;;;5062153;28;20436;-85
2022/06/11 02:28:47;;;;;;;;;;;22.50;99.90;;;;;;5064346;28;20366;-85
2022/06/11 02:31:18;;;;;;;;;;;22.40;99.90;;;;;;5064755;28;20007;-85
2022/06/11 02:33:46;;;;;;;;;;;22.40;99.90;;;;;;5065776;28;19920;-86
2022/06/11 02:36:19;;;;;;;;;;;22.40;99.90;;;;;;5063703;28;19952;-86
2022/06/11 02:38:46;;;;;;;;;;;22.50;99.90;;;;;;5065206;28;19964;-85
2022/06/11 02:41:14;;;;;;;;;;;22.50;99.90;;;;;;5064033;28;20019;-85
2022/06/11 02:43:41;;;;;;;;;;;22.50;99.90;;;;;;5064051;28;19925;-85
2022/06/11 02:48:51;;;;;;;;;;;22.50;99.90;;;;;;5065228;28;19924;-86
2022/06/11 02:51:18;;;;;;;;;;;22.40;99.90;;;;;;5062937;28;19921;-86
2022/06/11 02:53:45;;;;;;;;;;;22.50;99.90;;;;;;5063752;28;19996;-85
2022/06/11 02:56:13;;;;;;;;;;;22.50;99.90;;;;;;5067751;28;19956;-85
2022/06/11 02:58:40;;;;;;;;;;;22.40;99.90;;;;;;5066594;28;19928;-85
2022/06/11 03:01:06;;;;;;;;;;;22.50;99.90;;;;;;5071062;28;19924;-85
2022/06/11 03:03:33;;;;;;;;;;;22.50;99.90;;;;;;5069029;28;20349;-85
2022/06/11 03:06:01;;;;;;;;;;;22.40;99.90;;;;;;5062585;28;19920;-86
2022/06/11 03:08:28;;;;;;;;;;;22.50;99.90;;;;;;5064794;28;19921;-86
2022/06/11 03:10:55;;;;;;;;;;;22.40;99.90;;;;;;5065882;28;19979;-85
2022/06/11 03:13:22;;;;;;;;;;;22.40;99.90;;;;;;5067353;28;20374;-85
2022/06/11 03:15:49;;;;;;;;;;;22.50;99.90;;;;;;5066629;28;19967;-85
2022/06/11 03:18:15;;;;;;;;;;;22.50;99.90;;;;;;5066208;28;20369;-85
2022/06/11 03:20:42;;;;;;;;;;;22.40;99.90;;;;;;5065598;28;19979;-85
2022/06/11 03:23:11;;;;;;;;;;;22.50;99.90;;;;;;5065646;28;19980;-85
2022/06/11 03:25:38;;;;;;;;;;;22.50;99.90;;;;;;5065933;28;19972;-85
2022/06/11 03:28:08;;;;;;;;;;;22.50;99.90;;;;;;5063885;28;19987;-85
2022/06/11 03:30:35;;;;;;;;;;;22.50;99.90;;;;;;5061136;28;20003;-85
2022/06/11 03:33:01;;;;;;;;;;;22.40;99.90;;;;;;5061803;28;20012;-85
2022/06/11 03:35:28;;;;;;;;;;;22.50;99.90;;;;;;5062389;28;20020;-86
2022/06/11 03:37:56;;;;;;;;;;;22.50;99.90;;;;;;5061391;28;19984;-85
2022/06/11 03:40:24;;;;;;;;;;;22.50;99.90;;;;;;5060822;28;19984;-86
2022/06/11 03:42:50;;;;;;;;;;;22.40;99.90;;;;;;5062242;28;20372;-85
2022/06/11 03:45:17;;;;;;;;;;;22.40;99.90;;;;;;5061923;28;20363;-85
2022/06/11 03:47:45;;;;;;;;;;;22.50;99.90;;;;;;5059751;28;19924;-86
2022/06/11 03:50:16;;;;;;;;;;;22.40;99.90;;;;;;5059533;28;20015;-85
2022/06/11 03:52:43;;;;;;;;;;;22.40;99.90;;;;;;5061439;28;19979;-85
2022/06/11 03:55:09;;;;;;;;;;;22.50;99.90;;;;;;5058855;28;19999;-85
2022/06/11 03:57:38;;;;;;;;;;;22.50;99.90;;;;;;5054708;28;19927;-86
2022/06/11 04:00:06;;;;;;;;;;;22.40;99.90;;;;;;5055533;28;20398;-86
2022/06/11 04:02:33;;;;;;;;;;;22.50;99.90;;;;;;5056540;28;20007;-86
2022/06/11 04:04:59;;;;;;;;;;;22.40;99.90;;;;;;5056532;28;19960;-86
2022/06/11 04:07:26;;;;;;;;;;;22.40;99.90;;;;;;5059536;28;20007;-85
2022/06/11 04:09:53;;;;;;;;;;;22.50;99.90;;;;;;5061047;28;20007;-85
2022/06/11 04:12:19;;;;;;;;;;;22.50;99.90;;;;;;5059243;28;19964;-86
2022/06/11 04:14:48;;;;;;;;;;;22.50;99.90;;;;;;5061057;28;20332;-86
2022/06/11 04:17:16;;;;;;;;;;;22.50;99.90;;;;;;5061490;28;20352;-86
2022/06/11 04:19:44;;;;;;;;;;;22.40;99.90;;;;;;5059616;28;20003;-86
2022/06/11 04:22:10;;;;;;;;;;;22.50;99.90;;;;;;5060811;28;19963;-85
2022/06/11 04:24:37;;;;;;;;;;;22.40;99.90;;;;;;5059654;28;19960;-85
2022/06/11 04:27:05;;;;;;;;;;;22.40;99.90;;;;;;5055778;28;20011;-86
2022/06/11 04:29:33;;;;;;;;;;;22.40;99.90;;;;;;5056842;28;19921;-87
2022/06/11 04:32:03;;;;;;;;;;;22.40;99.90;;;;;;5055056;28;20351;-87
2022/06/11 04:34:30;;;;;;;;;;;22.40;99.90;;;;;;5055263;28;20011;-87
2022/06/11 04:36:58;;;;;;;;;;;22.40;99.90;;;;;;5056015;28;19968;-86
2022/06/11 04:39:27;;;;;;;;;;;22.40;99.90;;;;;;5055118;28;19931;-86
2022/06/11 04:41:53;;;;;;;;;;;22.40;99.90;;;;;;5056929;28;20015;-85
2022/06/11 04:44:20;;;;;;;;;;;22.40;99.90;;;;;;5063516;28;20027;-85
2022/06/11 04:46:47;;;;;;;;;;;22.40;99.90;;;;;;5064375;28;19964;-85
2022/06/11 04:49:15;;;;;;;;;;;22.40;99.90;;;;;;5063300;28;19966;-85
2022/06/11 04:51:43;;;;;;;;;;;22.40;99.90;;;;;;5063721;28;19928;-85
2022/06/11 04:54:09;;;;;;;;;;;22.40;99.90;;;;;;5063004;28;20381;-85
2022/06/11 04:56:36;;;;;;;;;;;22.40;99.90;;;;;;5064026;28;20387;-85
2022/06/11 04:59:03;;;;;;;;;;;22.40;99.90;;;;;;5058236;28;20003;-86
2022/06/11 05:01:30;;;;;;;;;;;22.40;99.90;;;;;;5056581;28;19931;-86
2022/06/11 05:03:57;;;;;;;;;;;22.40;99.90;;;;;;5059221;28;20011;-86
2022/06/11 05:06:29;;;;;;;;;;;22.40;99.90;;;;;;5062950;22;20032;-83
2022/06/11 05:08:56;;;;;;;;;;;22.40;99.90;;;;;;5034994;28;20358;-83
2022/06/11 05:11:22;;;;;;;;;;;22.40;99.90;;;;;;5035314;28;19944;-83
2022/06/11 05:13:49;;;;;;;;;;;22.40;99.90;;;;;;5035679;28;19924;-83
2022/06/11 05:16:17;;;;;;;;;;;22.40;99.90;;;;;;5034687;28;19999;-83
2022/06/11 05:18:44;;;;;;;;;;;22.40;99.90;;;;;;5035544;28;19995;-83
2022/06/11 05:21:11;;;;;;;;;;;22.40;99.90;;;;;;5035238;28;19921;-83
2022/06/11 05:23:39;;;;;;;;;;;22.40;99.90;;;;;;5035083;28;19921;-84
2022/06/11 05:26:06;;;;;;;;;;;22.40;99.90;;;;;;5034745;28;20355;-83
2022/06/11 05:28:34;;;;;;;;;;;22.40;99.90;;;;;;5035359;28;20008;-84
2022/06/11 05:31:01;;;;;;;;;;;22.40;99.90;;;;;;5035180;28;20008;-84
2022/06/11 05:33:28;;;;;;;;;;;22.40;99.90;;;;;;5034736;28;19960;-83
2022/06/11 05:35:55;;;;;;;;;;;22.40;99.90;;;;;;5034719;28;20008;-83
2022/06/11 05:38:23;;;;;;;;;;;22.40;99.90;;;;;;5035232;28;20015;-83
2022/06/11 05:40:52;;;;;;;;;;;22.40;99.90;;;;;;5035119;28;20023;-83
2022/06/11 05:43:19;;;;;;;;;;;22.40;99.90;;;;;;5034995;28;19921;-83
2022/06/11 05:45:47;;;;;;;;;;;22.40;99.90;;;;;;5034510;28;20364;-83
2022/06/11 05:48:15;;;;;;;;;;;22.40;99.90;;;;;;5035087;28;20347;-83
2022/06/11 05:50:45;;;;;;;;;;;22.40;99.90;;;;;;5034719;28;20020;-83
2022/06/11 05:53:14;;;;;;;;;;;22.40;99.90;;;;;;5035352;28;19921;-83
2022/06/11 05:55:41;;;;;;;;;;;22.40;99.90;;;;;;5035065;28;19979;-83
2022/06/11 05:58:10;;;;;;;;;;;22.40;99.90;;;;;;5035560;28;20373;-83
2022/06/11 06:00:37;;;;;;;;;;;22.40;99.90;;;;;;5034682;28;19928;-83
2022/06/11 06:03:04;;;;;;;;;;;22.40;99.90;;;;;;5035260;28;19963;-80
2022/06/11 06:05:31;;;;;;;;;;;22.40;99.90;;;;;;5034536;28;20011;-81
2022/06/11 06:07:58;;;;;;;;;;;22.40;99.90;;;;;;5034933;28;20027;-81
2022/06/11 06:10:26;;;;;;;;;;;22.40;99.90;;;;;;5034821;28;20003;-79
2022/06/11 06:12:52;;;;;;;;;;;22.40;99.90;;;;;;5034173;28;19932;-80
2022/06/11 06:15:23;;;;;;;;;;;22.40;99.90;;;;;;5034377;28;19927;-80
2022/06/11 06:17:49;;;;;;;;;;;22.40;99.90;;;;;;5034929;28;19920;-80
2022/06/11 06:20:17;;;;;;;;;;;22.40;99.90;;;;;;5034445;28;19968;-80
2022/06/11 06:22:44;;;;;;;;;;;22.40;99.90;;;;;;5037855;28;19921;-80
2022/06/11 06:25:13;;;;;;;;;;;22.40;99.90;;;;;;5038270;28;19925;-81
2022/06/11 06:27:39;;;;;;;;;;;22.40;99.90;;;;;;5038132;28;20300;-80
2022/06/11 06:30:07;;;;;;;;;;;22.40;99.90;;;;;;5039082;28;19971;-80
2022/06/11 06:32:35;;;;;;;;;;;22.40;99.90;;;;;;5039297;28;19984;-80
2022/06/11 06:35:02;;;;;;;;;;;22.40;99.90;;;;;;5040347;28;20008;-80
2022/06/11 06:37:28;;;;;;;;;;;22.40;99.90;;;;;;5039570;28;20009;-80
2022/06/11 06:39:55;;;;;;;;;;;22.40;99.90;;;;;;5038778;28;19973;-80
2022/06/11 06:42:22;;;;;;;;;;;22.40;99.90;;;;;;5039412;28;19988;-80
2022/06/11 06:44:48;;;;;;;;;;;22.40;99.90;;;;;;5040220;28;20007;-80
2022/06/11 06:47:15;;;;;;;;;;;22.40;99.90;;;;;;5038743;28;20435;-80
2022/06/11 06:49:43;;;;;;;;;;;22.40;99.90;;;;;;5039495;28;20440;-80
2022/06/11 06:52:09;;;;;;;;;;;22.40;99.90;;;;;;5040097;28;20007;-80
2022/06/11 06:54:36;;;;;;;;;;;22.40;99.90;;;;;;5039764;28;19931;-80
2022/06/11 06:57:03;;;;;;;;;;;22.40;99.90;;;;;;5038451;28;20004;-79
2022/06/11 06:59:30;;;;;;;;;;;22.40;99.90;;;;;;5037853;28;19927;-79
2022/06/11 07:01:56;;;;;;;;;;;22.40;99.90;;;;;;5037941;28;19927;-79
2022/06/11 07:04:23;;;;;;;;;;;22.40;99.90;;;;;;5038301;28;19952;-80
2022/06/11 07:06:51;;;;;;;;;;;22.40;99.90;;;;;;5038507;28;20023;-80
2022/06/11 07:09:17;;;;;;;;;;;22.40;99.90;;;;;;5038651;28;20019;-80
2022/06/11 07:11:44;;;;;;;;;;;22.40;99.90;;;;;;5038763;28;19956;-80
2022/06/11 07:14:11;;;;;;;;;;;22.40;99.90;;;;;;5038328;28;20020;-80
2022/06/11 07:16:39;;;;;;;;;;;22.50;99.90;;;;;;5038629;28;20004;-80
2022/06/11 07:19:11;;;;;;;;;;;22.40;99.90;;;;;;5039211;28;20015;-80
2022/06/11 07:21:38;;;;;;;;;;;22.50;99.90;;;;;;5039377;28;19988;-80
2022/06/11 07:24:10;;;;;;;;;;;22.50;99.90;;;;;;5037498;28;19921;-79
2022/06/11 07:26:37;;;;;;;;;;;22.50;99.90;;;;;;5037377;28;20372;-79
2022/06/11 07:29:06;;;;;;;;;;;22.40;99.90;;;;;;5038084;28;20383;-79
2022/06/11 07:31:33;;;;;;;;;;;22.50;99.90;;;;;;5037936;28;20111;-79
2022/06/11 07:34:00;;;;;;;;;;;22.40;99.90;;;;;;5036892;28;20011;-79
2022/06/11 07:36:27;;;;;;;;;;;22.50;99.90;;;;;;5038244;28;20035;-80
2022/06/11 07:38:54;;;;;;;;;;;22.40;99.90;;;;;;5038125;28;19927;-80
2022/06/11 07:41:22;;;;;;;;;;;22.50;99.90;;;;;;5037999;28;19961;-80
2022/06/11 07:43:48;;;;;;;;;;;22.40;99.90;;;;;;5037762;28;20012;-80
2022/06/11 07:46:15;;;;;;;;;;;22.50;99.90;;;;;;5037764;28;20479;-80
2022/06/11 07:48:42;;;;;;;;;;;22.40;99.90;;;;;;5037273;28;20471;-81
2022/06/11 07:51:09;;;;;;;;;;;22.40;99.90;;;;;;5036882;28;20353;-81
2022/06/11 07:53:36;;;;;;;;;;;22.40;99.90;;;;;;5037584;28;19928;-81
2022/06/11 07:56:03;;;;;;;;;;;22.40;99.90;;;;;;5037192;28;19960;-80
2022/06/11 07:58:32;;;;;;;;;;;22.40;99.90;;;;;;5037733;28;20019;-80
2022/06/11 08:00:59;;;;;;;;;;;22.40;99.90;;;;;;5036931;28;20365;-80
2022/06/11 08:03:27;;;;;;;;;;;22.40;99.90;;;;;;5036867;28;19967;-80
2022/06/11 08:05:54;;;;;;;;;;;22.50;99.90;;;;;;5037147;28;19921;-80
2022/06/11 08:08:22;;;;;;;;;;;22.40;99.90;;;;;;5036582;28;19921;-80
2022/06/11 08:10:49;;;;;;;;;;;22.40;99.90;;;;;;5036708;28;20040;-82
2022/06/11 08:13:16;;;;;;;;;;;22.50;99.90;;;;;;5035387;28;19920;-83
2022/06/11 08:15:45;;;;;;;;;;;22.40;99.90;;;;;;5035619;28;20015;-87
2022/06/11 08:18:12;;;;;;;;;;;22.40;99.90;;;;;;5035360;28;19931;-83
2022/06/11 08:20:39;;;;;;;;;;;22.50;99.90;;;;;;5035927;28;19928;-83
2022/06/11 08:23:06;;;;;;;;;;;22.40;99.90;;;;;;5037011;28;20007;-81
2022/06/11 08:25:33;;;;;;;;;;;22.40;99.90;;;;;;5037455;28;20387;-81
2022/06/11 08:28:01;;;;;;;;;;;22.40;99.90;;;;;;5036785;28;20368;-80
2022/06/11 08:30:28;;;;;;;;;;;22.40;99.90;;;;;;5036968;28;19968;-79
2022/06/11 08:32:56;;;;;;;;;;;22.30;99.90;;;;;;5037683;28;19928;-79
2022/06/11 08:35:24;;;;;;;;;;;22.30;99.90;;;;;;5036619;28;19921;-80
2022/06/11 08:37:51;;;;;;;;;;;22.30;99.90;;;;;;5038661;28;20295;-81
2022/06/11 08:40:20;;;;;;;;;;;22.20;99.90;;;;;;5038038;28;20011;-81
2022/06/11 08:42:50;;;;;;;;;;;22.20;99.90;;;;;;5037679;28;19921;-80
2022/06/11 08:45:19;;;;;;;;;;;22.20;99.90;;;;;;5037118;28;19967;-80
2022/06/11 08:47:51;;;;;;;;;;;22.20;99.90;;;;;;5037485;28;19963;-80
2022/06/11 08:50:22;;;;;;;;;;;22.20;99.90;;;;;;5037305;28;19928;-81
2022/06/11 08:52:49;;;;;;;;;;;22.20;99.90;;;;;;5037357;28;20003;-80
2022/06/11 08:55:15;;;;;;;;;;;22.20;99.90;;;;;;5036360;28;19927;-79
2022/06/11 08:57:53;;;;;;;;;;;22.20;99.90;;;;;;5036776;28;19971;-78
2022/06/11 09:00:20;;;;;;;;;;;22.20;99.90;;;;;;5036897;28;19976;-79
2022/06/11 09:03:05;;;;;;;;;;;22.20;99.90;;;;;;5037102;28;19961;-81
2022/06/11 09:05:40;;;;;;;;;;;22.10;99.90;;;;;;5036833;28;20012;-80
2022/06/11 09:08:32;;;;;;;;;;;22.10;99.90;;;;;;5036156;28;19921;-78
2022/06/11 09:11:11;;;;;;;;;;;22.10;99.90;;;;;;5034925;28;19929;-78
2022/06/11 09:13:46;;;;;;;;;;;22.10;99.90;;;;;;5036506;28;19921;-81
2022/06/11 09:16:17;;;;;;;;;;;22.10;99.90;;;;;;5037488;28;19959;-81
2022/06/11 09:18:58;;;;;;;;;;;22.20;99.90;;;;;;5035735;28;20003;-83
2022/06/11 09:21:36;;;;;;;;;;;22.20;99.90;;;;;;5034145;28;19928;-83
2022/06/11 09:24:08;;;;;;;;;;;22.20;99.90;;;;;;5036389;28;19931;-82
2022/06/11 09:26:40;;;;;;;;;;;22.20;99.90;;;;;;5036721;28;20008;-82
2022/06/11 09:29:11;;;;;;;;;;;22.20;99.90;;;;;;5037851;28;19977;-82
2022/06/11 09:31:41;;;;;;;;;;;22.20;99.90;;;;;;5037022;28;20007;-81
2022/06/11 09:34:10;;;;;;;;;;;22.20;99.90;;;;;;5036472;28;20460;-82
2022/06/11 09:36:40;;;;;;;;;;;22.20;99.90;;;;;;5036364;28;19976;-82
2022/06/11 09:39:10;;;;;;;;;;;22.20;99.90;;;;;;5036673;28;19928;-82
2022/06/11 09:41:42;;;;;;;;;;;22.20;99.90;;;;;;5035482;28;20020;-85
2022/06/11 09:44:18;;;;;;;;;;;22.30;99.90;;;;;;5034018;28;20364;-85
2022/06/11 09:46:48;;;;;;;;;;;22.30;99.90;;;;;;5033948;28;19927;-86
2022/06/11 09:49:20;;;;;;;;;;;22.20;99.90;;;;;;5033738;28;19968;-84
2022/06/11 09:51:51;;;;;;;;;;;22.30;99.90;;;;;;5036367;28;20007;-78
2022/06/11 09:54:25;;;;;;;;;;;22.30;99.90;;;;;;5034795;28;20455;-78
2022/06/11 09:56:58;;;;;;;;;;;22.30;99.90;;;;;;5037115;28;20269;-79
2022/06/11 09:59:28;;;;;;;;;;;22.30;99.90;;;;;;5039367;28;19997;-79
2022/06/11 10:01:58;;;;;;;;;;;22.30;99.90;;;;;;5038711;28;19921;-79
2022/06/11 10:04:27;;;;;;;;;;;22.30;99.90;;;;;;5039154;28;19979;-79
2022/06/11 10:06:56;;;;;;;;;;;22.30;99.90;;;;;;5039254;28;19931;-79
2022/06/11 10:09:26;;;;;;;;;;;22.30;99.90;;;;;;5039012;28;20015;-79
2022/06/11 10:11:56;;;;;;;;;;;22.30;99.90;;;;;;5038407;28;20011;-78
2022/06/11 10:14:30;;;;;;;;;;;22.30;99.90;;;;;;5037980;28;20273;-78
2022/06/11 10:16:58;;;;;;;;;;;22.30;99.90;;;;;;5037192;28;20008;-77
2022/06/11 10:19:27;;;;;;;;;;;22.30;99.90;;;;;;5037462;28;20019;-78
2022/06/11 10:21:58;;;;;;;;;;;22.30;99.80;;;;;;5036989;28;20414;-78
2022/06/11 10:24:27;;;;;;;;;;;22.30;99.40;;;;;;5037371;28;20008;-78
2022/06/11 10:26:57;;;;;;;;;;;22.30;99.00;;;;;;5037349;28;19921;-77
2022/06/11 10:29:27;;;;;;;;;;;22.30;98.80;;;;;;5037311;28;19925;-78
2022/06/11 10:31:55;;;;;;;;;;;22.30;98.50;;;;;;5037375;28;19964;-78
2022/06/11 10:34:23;;;;;;;;;;;22.30;98.20;;;;;;5037084;28;19921;-78
2022/06/11 10:36:52;;;;;;;;;;;22.30;97.90;;;;;;5037391;28;19989;-79
2022/06/11 10:39:22;;;;;;;;;;;22.30;97.70;;;;;;5038663;28;20003;-79
2022/06/11 10:41:53;;;;;;;;;;;22.30;97.50;;;;;;5039599;28;20016;-80
2022/06/11 10:44:23;;;;;;;;;;;22.30;97.30;;;;;;5039285;28;19928;-82
2022/06/11 10:46:52;;;;;;;;;;;22.30;97.10;;;;;;5038435;28;20360;-82
2022/06/11 10:49:21;;;;;;;;;;;22.30;96.90;;;;;;5038354;28;19921;-86
2022/06/11 10:51:49;;;;;;;;;;;22.40;96.70;;;;;;5038084;28;19971;-81
2022/06/11 10:54:19;;;;;;;;;;;22.30;96.40;;;;;;5038043;28;20004;-82
2022/06/11 10:56:49;;;;;;;;;;;22.40;96.50;;;;;;5039404;28;20012;-82
2022/06/11 10:59:22;;;;;;;;;;;22.40;96.50;;;;;;5039038;28;19921;-82
2022/06/11 11:01:52;;;;;;;;;;;22.40;96.30;;;;;;5040559;28;19921;-82
2022/06/11 11:04:25;;;;;;;;;;;22.40;96.10;;;;;;5042998;28;20000;-81
2022/06/11 11:07:07;;;;;;;;;;;22.40;95.90;;;;;;5043525;28;19991;-81
2022/06/11 11:09:34;;;;;;;;;;;22.40;95.70;;;;;;5043773;28;19925;-81
2022/06/11 11:12:06;;;;;;;;;;;22.40;95.50;;;;;;5043690;28;19921;-81
2022/06/11 11:14:35;;;;;;;;;;;22.40;95.40;;;;;;5045162;28;19997;-81
2022/06/11 11:17:04;;;;;;;;;;;22.40;95.20;;;;;;5043715;28;20319;-81
2022/06/11 11:19:32;;;;;;;;;;;22.40;95.10;;;;;;5043010;28;19921;-81
2022/06/11 11:22:01;;;;;;;;;;;22.50;95.00;;;;;;5042396;28;20315;-81
2022/06/11 11:24:31;;;;;;;;;;;22.50;94.90;;;;;;5039828;28;19920;-81
2022/06/11 11:26:59;;;;;;;;;;;22.40;94.80;;;;;;5037240;28;19928;-84
2022/06/11 11:29:29;;;;;;;;;;;22.50;94.70;;;;;;5036556;28;20392;-84
2022/06/11 11:31:58;;;;;;;;;;;22.50;94.60;;;;;;5037775;28;19921;-84
2022/06/11 11:34:25;;;;;;;;;;;22.50;94.50;;;;;;5041568;28;19924;-84
2022/06/11 11:36:57;;;;;;;;;;;22.50;94.40;;;;;;5040790;28;20016;-84
2022/06/11 11:39:29;;;;;;;;;;;22.50;94.30;;;;;;5041454;28;19925;-84
2022/06/11 11:42:02;;;;;;;;;;;22.50;94.10;;;;;;5041437;28;20013;-84
2022/06/11 11:44:35;;;;;;;;;;;22.50;94.10;;;;;;5040976;28;19928;-84
2022/06/11 11:47:03;;;;;;;;;;;22.50;94.10;;;;;;5040674;28;19980;-84
2022/06/11 11:49:32;;;;;;;;;;;22.50;94.10;;;;;;5041265;28;20019;-84
2022/06/11 11:52:03;;;;;;;;;;;22.50;94.00;;;;;;5042398;28;20084;-84
2022/06/11 11:54:30;;;;;;;;;;;22.50;93.90;;;;;;5039576;28;20434;-82
2022/06/11 11:56:57;;;;;;;;;;;22.50;93.80;;;;;;5036534;28;20016;-82
2022/06/11 11:59:25;;;;;;;;;;;22.60;93.80;;;;;;5036493;28;19921;-82
2022/06/11 12:01:55;;;;;;;;;;;22.50;93.60;;;;;;5036190;28;19921;-82
2022/06/11 12:04:25;;;;;;;;;;;22.50;93.60;;;;;;5036383;28;19921;-82
2022/06/11 12:06:54;;;;;;;;;;;22.60;93.60;;;;;;5036192;28;20399;-82
2022/06/11 12:09:23;;;;;;;;;;;22.60;93.50;;;;;;5036234;28;20347;-82
2022/06/11 12:11:57;;;;;;;;;;;22.50;93.40;;;;;;5036585;28;19921;-81
2022/06/11 12:14:29;;;;;;;;;;;22.60;93.40;;;;;;5036331;28;20015;-81
2022/06/11 12:16:57;;;;;;;;;;;22.60;93.30;;;;;;5036142;28;19928;-81
2022/06/11 12:19:26;;;;;;;;;;;22.60;93.30;;;;;;5035725;28;19928;-82
2022/06/11 12:21:55;;;;;;;;;;;22.60;93.20;;;;;;5036071;28;19932;-82
2022/06/11 12:24:25;;;;;;;;;;;22.60;93.20;;;;;;5035899;28;20329;-82
2022/06/11 12:26:54;;;;;;;;;;;22.60;93.10;;;;;;5035964;28;20007;-82
2022/06/11 12:29:25;;;;;;;;;;;22.60;93.10;;;;;;5035935;28;19921;-82
2022/06/11 12:31:54;;;;;;;;;;;22.60;93.00;;;;;;5035697;28;20377;-82
2022/06/11 12:34:24;;;;;;;;;;;22.60;93.00;;;;;;5036486;28;19925;-82
2022/06/11 12:36:55;;;;;;;;;;;22.60;93.00;;;;;;5035654;28;19921;-82
2022/06/11 12:39:35;;;;;;;;;;;22.60;92.90;;;;;;5035906;28;19921;-82
2022/06/11 12:42:06;;;;;;;;;;;22.60;92.90;;;;;;5035682;28;19920;-81
2022/06/11 12:44:44;;;;;;;;;;;22.70;93.00;;;;;;5035826;28;19921;-81
2022/06/11 12:47:20;;;;;;;;;;;22.70;93.00;;;;;;5035943;28;20023;-81
2022/06/11 12:49:54;;;;;;;;;;;22.60;92.90;;;;;;5035669;28;19921;-82
2022/06/11 12:52:24;;;;;;;;;;;22.70;92.90;;;;;;5035267;28;20368;-82
2022/06/11 12:55:09;;;;;;;;;;;22.70;92.90;;;;;;5035498;28;20468;-82
2022/06/11 12:57:46;;;;;;;;;;;22.70;92.90;;;;;;5035761;28;20333;-82
2022/06/11 13:00:27;;;;;;;;;;;22.70;92.90;;;;;;5036047;28;19921;-82
2022/06/11 13:02:58;;;;;;;;;;;22.70;92.90;;;;;;5035287;28;20383;-82
2022/06/11 13:05:42;;;;;;;;;;;22.70;92.90;;;;;;5035410;28;20008;-82
2022/06/11 13:08:18;;;;;;;;;;;22.70;92.90;;;;;;5035903;28;19927;-82
2022/06/11 13:10:49;;;;;;;;;;;22.70;92.90;;;;;;5035753;28;19931;-82
2022/06/11 13:13:27;;;;;;;;;;;22.70;92.90;;;;;;5035397;28;19960;-82
2022/06/11 13:15:57;;;;;;;;;;;22.70;92.90;;;;;;5035595;28;19925;-82
2022/06/11 13:18:39;;;;;;;;;;;22.80;92.90;;;;;;5035226;28;20007;-82
2022/06/11 13:21:11;;;;;;;;;;;22.80;92.90;;;;;;5035863;28;20353;-82
2022/06/11 13:23:47;;;;;;;;;;;22.80;92.90;;;;;;5036110;28;20008;-82
2022/06/11 13:26:16;;;;;;;;;;;22.80;93.00;;;;;;5036093;28;20386;-82
2022/06/11 13:28:51;;;;;;;;;;;22.90;93.00;;;;;;5036168;28;19921;-82
2022/06/11 13:31:23;;;;;;;;;;;22.90;93.00;;;;;;5036194;28;19927;-82
2022/06/11 13:33:56;;;;;;;;;;;22.80;93.00;;;;;;5035956;28;19960;-82
2022/06/11 13:36:28;;;;;;;;;;;22.90;93.00;;;;;;5035891;28;19968;-82
2022/06/11 13:39:02;;;;;;;;;;;22.90;93.00;;;;;;5035789;28;19921;-82
2022/06/11 13:41:38;;;;;;;;;;;22.90;93.00;;;;;;5036208;28;20020;-82
2022/06/11 13:44:12;;;;;;;;;;;22.90;93.00;;;;;;5036234;28;19956;-81
2022/06/11 13:46:44;;;;;;;;;;;22.90;93.00;;;;;;5036071;28;19921;-81
2022/06/11 13:49:19;;;;;;;;;;;22.90;93.00;;;;;;5035889;28;19921;-81
2022/06/11 13:51:47;;;;;;;;;;;22.90;92.90;;;;;;5036127;28;20028;-81
2022/06/11 13:57:14;;;;;;;;;;;22.90;92.80;;;;;;5036243;28;19927;-81
2022/06/11 14:00:02;;;;;;;;;;;22.90;92.80;;;;;;5036131;28;20015;-81
2022/06/11 14:02:43;;;;;;;;;;;22.90;92.70;;;;;;5018667;28;20361;-81
2022/06/11 14:05:13;;;;;;;;;;;22.90;92.60;;;;;;5027142;28;19952;-81
2022/06/11 14:07:40;;;;;;;;;;;22.90;92.60;;;;;;5035791;28;19921;-81
2022/06/11 14:10:24;;;;;;;;;;;22.90;92.50;;;;;;5036312;28;20423;-81
2022/06/11 14:12:51;;;;;;;;;;;22.90;92.50;;;;;;5035713;28;19921;-81
2022/06/11 14:15:30;;;;;;;;;;;22.90;92.40;;;;;;5036240;28;19971;-81
2022/06/11 14:17:58;;;;;;;;;;;22.90;92.30;;;;;;5035823;28;19921;-81
2022/06/11 14:20:27;;;;;;;;;;;22.90;92.30;;;;;;5035947;28;20003;-81
2022/06/11 14:22:54;;;;;;;;;;;22.90;92.20;;;;;;5035986;28;19931;-81
2022/06/11 14:25:34;;;;;;;;;;;22.90;92.20;;;;;;5035868;28;19921;-81
2022/06/11 14:28:16;;;;;;;;;;;22.90;92.10;;;;;;5036211;28;19928;-81
2022/06/11 14:31:02;;;;;;;;;;;22.80;92.00;;;;;;5036028;28;20015;-81
2022/06/11 14:33:31;;;;;;;;;;;22.90;91.90;;;;;;5036629;28;19928;-81
2022/06/11 14:36:00;;;;;;;;;;;22.80;91.90;;;;;;5036151;28;20416;-81